sensor_id;sensor_type;location;lat;lon;timestamp;P1;durP1;ratioP1;P2;durP2;ratioP2
19187;SDS011;9726;52.198;8.792;2022-10-31T00:00:46;39.43;;;16.70;;
19187;SDS011;9726;52.198;8.792;2022-10-31T00:03:13;40.17;;;16.77;;
19187;SDS011;9726;52.198;8.792;2022-10-31T00:05:41;34.93;;;17.70;;
19187;SDS011;9726;52.198;8.792;2022-10-31T00:08:09;34.40;;;16.33;;
19187;SDS011;9726;52.198;8.792;2022-10-31T00:10:38;42.17;;;17.03;;
19187;SDS011;9726;52.198;8.792;2022-10-31T00:13:05;35.87;;;17.13;;
19187;SDS011;9726;52.198;8.792;2022-10-31T00:15:37;46.10;;;19.17;;
19187;SDS011;9726;52.198;8.792;2022-10-31T00:18:05;42.43;;;20.50;;
19187;SDS011;9726;52.198;8.792;2022-10-31T00:20:33;40.03;;;20.33;;
19187;SDS011;9726;52.198;8.792;2022-10-31T00:23:00;55.97;;;23.20;;
19187;SDS011;9726;52.198;8.792;2022-10-31T00:25:32;55.33;;;24.13;;
19187;SDS011;9726;52.198;8.792;2022-10-31T00:28:00;50.77;;;24.70;;
19187;SDS011;9726;52.198;8.792;2022-10-31T00:30:28;47.80;;;23.57;;
19187;SDS011;9726;52.198;8.792;2022-10-31T00:32:56;52.67;;;25.40;;
19187;SDS011;9726;52.198;8.792;2022-10-31T00:35:23;54.80;;;26.90;;
19187;SDS011;9726;52.198;8.792;2022-10-31T00:37:51;60.43;;;29.23;;
19187;SDS011;9726;52.198;8.792;2022-10-31T00:40:18;53.47;;;28.00;;
19187;SDS011;9726;52.198;8.792;2022-10-31T00:42:46;66.30;;;29.93;;
19187;SDS011;9726;52.198;8.792;2022-10-31T00:45:13;61.07;;;32.87;;
19187;SDS011;9726;52.198;8.792;2022-10-31T00:47:40;57.53;;;28.70;;
19187;SDS011;9726;52.198;8.792;2022-10-31T00:50:08;58.77;;;29.87;;
19187;SDS011;9726;52.198;8.792;2022-10-31T00:52:35;63.50;;;32.30;;
19187;SDS011;9726;52.198;8.792;2022-10-31T00:55:03;70.80;;;33.13;;
19187;SDS011;9726;52.198;8.792;2022-10-31T00:57:30;68.87;;;32.80;;
19187;SDS011;9726;52.198;8.792;2022-10-31T00:59:58;69.77;;;34.00;;
19187;SDS011;9726;52.198;8.792;2022-10-31T01:02:26;76.23;;;36.70;;
19187;SDS011;9726;52.198;8.792;2022-10-31T01:04:54;75.87;;;38.07;;
19187;SDS011;9726;52.198;8.792;2022-10-31T01:07:21;78.60;;;38.37;;
19187;SDS011;9726;52.198;8.792;2022-10-31T01:09:48;72.37;;;38.07;;
19187;SDS011;9726;52.198;8.792;2022-10-31T01:12:16;79.47;;;39.47;;
19187;SDS011;9726;52.198;8.792;2022-10-31T01:14:46;83.23;;;38.50;;
19187;SDS011;9726;52.198;8.792;2022-10-31T01:17:16;76.83;;;38.67;;
19187;SDS011;9726;52.198;8.792;2022-10-31T01:19:45;77.37;;;38.60;;
19187;SDS011;9726;52.198;8.792;2022-10-31T01:22:13;74.40;;;36.47;;
19187;SDS011;9726;52.198;8.792;2022-10-31T01:24:40;76.67;;;37.47;;
19187;SDS011;9726;52.198;8.792;2022-10-31T01:27:07;84.07;;;39.37;;
19187;SDS011;9726;52.198;8.792;2022-10-31T01:29:34;73.73;;;38.37;;
19187;SDS011;9726;52.198;8.792;2022-10-31T01:32:02;76.30;;;35.10;;
19187;SDS011;9726;52.198;8.792;2022-10-31T01:34:29;81.13;;;34.03;;
19187;SDS011;9726;52.198;8.792;2022-10-31T01:36:57;70.63;;;33.63;;
19187;SDS011;9726;52.198;8.792;2022-10-31T01:39:24;65.17;;;32.67;;
19187;SDS011;9726;52.198;8.792;2022-10-31T01:41:52;63.83;;;31.17;;
19187;SDS011;9726;52.198;8.792;2022-10-31T01:46:52;67.83;;;31.00;;
19187;SDS011;9726;52.198;8.792;2022-10-31T01:49:24;61.50;;;27.93;;
19187;SDS011;9726;52.198;8.792;2022-10-31T01:52:24;76.30;;;34.73;;
19187;SDS011;9726;52.198;8.792;2022-10-31T01:55:15;63.37;;;29.97;;
19187;SDS011;9726;52.198;8.792;2022-10-31T01:57:53;68.03;;;29.10;;
19187;SDS011;9726;52.198;8.792;2022-10-31T02:00:24;71.83;;;34.37;;
19187;SDS011;9726;52.198;8.792;2022-10-31T02:02:52;64.87;;;29.30;;
19187;SDS011;9726;52.198;8.792;2022-10-31T02:05:23;60.03;;;29.57;;
19187;SDS011;9726;52.198;8.792;2022-10-31T02:10:38;72.97;;;32.97;;
19187;SDS011;9726;52.198;8.792;2022-10-31T02:13:07;72.90;;;33.83;;
19187;SDS011;9726;52.198;8.792;2022-10-31T02:15:42;62.93;;;30.77;;
19187;SDS011;9726;52.198;8.792;2022-10-31T02:18:11;81.27;;;33.60;;
19187;SDS011;9726;52.198;8.792;2022-10-31T02:23:25;78.27;;;35.67;;
19187;SDS011;9726;52.198;8.792;2022-10-31T02:26:22;73.23;;;33.17;;
19187;SDS011;9726;52.198;8.792;2022-10-31T02:46:38;73.07;;;32.80;;
19187;SDS011;9726;52.198;8.792;2022-10-31T02:49:10;72.03;;;34.30;;
19187;SDS011;9726;52.198;8.792;2022-10-31T02:51:44;88.90;;;38.73;;
19187;SDS011;9726;52.198;8.792;2022-10-31T02:54:18;118.90;;;48.20;;
19187;SDS011;9726;52.198;8.792;2022-10-31T02:56:57;80.97;;;37.00;;
19187;SDS011;9726;52.198;8.792;2022-10-31T02:59:28;80.87;;;37.30;;
19187;SDS011;9726;52.198;8.792;2022-10-31T03:13:01;103.03;;;41.87;;
19187;SDS011;9726;52.198;8.792;2022-10-31T03:15:56;106.40;;;43.90;;
19187;SDS011;9726;52.198;8.792;2022-10-31T03:18:33;113.67;;;44.17;;
19187;SDS011;9726;52.198;8.792;2022-10-31T03:21:25;110.00;;;46.13;;
19187;SDS011;9726;52.198;8.792;2022-10-31T03:23:57;101.53;;;42.97;;
19187;SDS011;9726;52.198;8.792;2022-10-31T03:26:27;109.07;;;46.13;;
19187;SDS011;9726;52.198;8.792;2022-10-31T03:28:57;113.53;;;47.20;;
19187;SDS011;9726;52.198;8.792;2022-10-31T03:31:48;120.63;;;48.30;;
19187;SDS011;9726;52.198;8.792;2022-10-31T03:34:21;99.23;;;44.77;;
19187;SDS011;9726;52.198;8.792;2022-10-31T03:36:49;108.70;;;47.87;;
19187;SDS011;9726;52.198;8.792;2022-10-31T03:39:20;119.53;;;49.83;;
19187;SDS011;9726;52.198;8.792;2022-10-31T03:41:52;97.97;;;46.57;;
19187;SDS011;9726;52.198;8.792;2022-10-31T03:44:30;103.13;;;48.57;;
19187;SDS011;9726;52.198;8.792;2022-10-31T03:47:01;100.80;;;46.07;;
19187;SDS011;9726;52.198;8.792;2022-10-31T03:49:30;100.23;;;44.07;;
19187;SDS011;9726;52.198;8.792;2022-10-31T03:52:19;81.80;;;41.23;;
19187;SDS011;9726;52.198;8.792;2022-10-31T03:55:03;87.27;;;40.27;;
19187;SDS011;9726;52.198;8.792;2022-10-31T03:57:57;97.77;;;41.97;;
19187;SDS011;9726;52.198;8.792;2022-10-31T04:00:31;93.50;;;43.17;;
19187;SDS011;9726;52.198;8.792;2022-10-31T04:03:03;96.33;;;42.33;;
19187;SDS011;9726;52.198;8.792;2022-10-31T04:05:44;97.77;;;44.63;;
19187;SDS011;9726;52.198;8.792;2022-10-31T04:08:15;107.77;;;42.77;;
19187;SDS011;9726;52.198;8.792;2022-10-31T04:10:47;95.20;;;42.17;;
19187;SDS011;9726;52.198;8.792;2022-10-31T04:13:19;108.07;;;42.87;;
19187;SDS011;9726;52.198;8.792;2022-10-31T04:15:59;92.83;;;37.13;;
19187;SDS011;9726;52.198;8.792;2022-10-31T04:18:27;101.77;;;42.17;;
19187;SDS011;9726;52.198;8.792;2022-10-31T04:21:02;88.07;;;37.83;;
19187;SDS011;9726;52.198;8.792;2022-10-31T04:23:31;86.60;;;36.17;;
19187;SDS011;9726;52.198;8.792;2022-10-31T04:26:03;97.27;;;40.50;;
19187;SDS011;9726;52.198;8.792;2022-10-31T04:28:31;86.87;;;35.93;;
19187;SDS011;9726;52.198;8.792;2022-10-31T04:31:00;81.43;;;35.53;;
19187;SDS011;9726;52.198;8.792;2022-10-31T04:33:30;85.47;;;36.27;;
19187;SDS011;9726;52.198;8.792;2022-10-31T04:35:57;89.47;;;37.50;;
19187;SDS011;9726;52.198;8.792;2022-10-31T04:38:24;87.10;;;37.60;;
19187;SDS011;9726;52.198;8.792;2022-10-31T04:40:52;99.07;;;40.80;;
19187;SDS011;9726;52.198;8.792;2022-10-31T04:43:38;96.90;;;40.00;;
19187;SDS011;9726;52.198;8.792;2022-10-31T04:46:05;97.53;;;40.97;;
19187;SDS011;9726;52.198;8.792;2022-10-31T04:48:32;107.50;;;40.83;;
19187;SDS011;9726;52.198;8.792;2022-10-31T04:51:02;111.10;;;39.63;;
19187;SDS011;9726;52.198;8.792;2022-10-31T04:53:29;110.23;;;41.87;;
19187;SDS011;9726;52.198;8.792;2022-10-31T04:56:16;85.90;;;36.03;;
19187;SDS011;9726;52.198;8.792;2022-10-31T04:58:46;95.67;;;38.90;;
19187;SDS011;9726;52.198;8.792;2022-10-31T05:01:13;79.20;;;34.90;;
19187;SDS011;9726;52.198;8.792;2022-10-31T05:03:41;123.35;;;54.78;;
19187;SDS011;9726;52.198;8.792;2022-10-31T05:06:08;109.53;;;44.30;;
19187;SDS011;9726;52.198;8.792;2022-10-31T05:08:39;117.63;;;46.37;;
19187;SDS011;9726;52.198;8.792;2022-10-31T05:11:08;103.33;;;41.60;;
19187;SDS011;9726;52.198;8.792;2022-10-31T05:13:36;103.20;;;37.73;;
19187;SDS011;9726;52.198;8.792;2022-10-31T05:16:12;100.33;;;38.03;;
19187;SDS011;9726;52.198;8.792;2022-10-31T05:19:05;105.40;;;39.80;;
19187;SDS011;9726;52.198;8.792;2022-10-31T05:22:09;101.80;;;40.23;;
19187;SDS011;9726;52.198;8.792;2022-10-31T05:24:36;108.15;;;42.28;;
19187;SDS011;9726;52.198;8.792;2022-10-31T05:27:04;97.80;;;41.03;;
19187;SDS011;9726;52.198;8.792;2022-10-31T05:29:31;92.53;;;38.53;;
19187;SDS011;9726;52.198;8.792;2022-10-31T05:32:00;100.70;;;40.43;;
19187;SDS011;9726;52.198;8.792;2022-10-31T05:34:56;95.90;;;38.43;;
19187;SDS011;9726;52.198;8.792;2022-10-31T05:37:46;104.87;;;39.23;;
19187;SDS011;9726;52.198;8.792;2022-10-31T05:40:14;85.90;;;35.93;;
19187;SDS011;9726;52.198;8.792;2022-10-31T05:42:43;70.53;;;33.07;;
19187;SDS011;9726;52.198;8.792;2022-10-31T05:45:13;69.27;;;32.73;;
19187;SDS011;9726;52.198;8.792;2022-10-31T05:47:59;66.83;;;31.77;;
19187;SDS011;9726;52.198;8.792;2022-10-31T05:50:47;66.27;;;30.03;;
19187;SDS011;9726;52.198;8.792;2022-10-31T05:53:15;59.37;;;27.50;;
19187;SDS011;9726;52.198;8.792;2022-10-31T05:55:43;64.00;;;29.80;;
19187;SDS011;9726;52.198;8.792;2022-10-31T05:58:13;66.00;;;30.10;;
19187;SDS011;9726;52.198;8.792;2022-10-31T06:00:59;73.83;;;30.87;;
19187;SDS011;9726;52.198;8.792;2022-10-31T06:03:26;68.67;;;30.90;;
19187;SDS011;9726;52.198;8.792;2022-10-31T06:05:58;89.57;;;35.27;;
19187;SDS011;9726;52.198;8.792;2022-10-31T06:08:33;78.80;;;30.50;;
19187;SDS011;9726;52.198;8.792;2022-10-31T06:11:04;73.10;;;31.20;;
19187;SDS011;9726;52.198;8.792;2022-10-31T06:14:04;71.27;;;32.80;;
19187;SDS011;9726;52.198;8.792;2022-10-31T06:17:00;80.93;;;31.73;;
19187;SDS011;9726;52.198;8.792;2022-10-31T06:20:03;81.60;;;31.57;;
19187;SDS011;9726;52.198;8.792;2022-10-31T06:22:35;85.20;;;32.50;;
19187;SDS011;9726;52.198;8.792;2022-10-31T06:25:03;85.90;;;35.57;;
19187;SDS011;9726;52.198;8.792;2022-10-31T06:27:36;92.13;;;37.17;;
19187;SDS011;9726;52.198;8.792;2022-10-31T06:30:10;101.33;;;36.37;;
19187;SDS011;9726;52.198;8.792;2022-10-31T06:32:37;76.77;;;31.67;;
19187;SDS011;9726;52.198;8.792;2022-10-31T06:35:04;89.97;;;34.23;;
19187;SDS011;9726;52.198;8.792;2022-10-31T06:37:33;77.43;;;33.97;;
19187;SDS011;9726;52.198;8.792;2022-10-31T06:40:16;70.33;;;32.43;;
19187;SDS011;9726;52.198;8.792;2022-10-31T06:43:04;79.37;;;34.80;;
19187;SDS011;9726;52.198;8.792;2022-10-31T06:45:31;82.10;;;34.17;;
19187;SDS011;9726;52.198;8.792;2022-10-31T06:48:25;88.57;;;35.23;;
19187;SDS011;9726;52.198;8.792;2022-10-31T06:51:13;73.63;;;34.17;;
19187;SDS011;9726;52.198;8.792;2022-10-31T06:53:40;79.27;;;35.50;;
19187;SDS011;9726;52.198;8.792;2022-10-31T06:56:10;93.17;;;39.23;;
19187;SDS011;9726;52.198;8.792;2022-10-31T06:58:43;78.33;;;36.63;;
19187;SDS011;9726;52.198;8.792;2022-10-31T07:01:12;64.60;;;31.77;;
19187;SDS011;9726;52.198;8.792;2022-10-31T07:03:39;62.77;;;29.53;;
19187;SDS011;9726;52.198;8.792;2022-10-31T07:06:07;71.63;;;32.50;;
19187;SDS011;9726;52.198;8.792;2022-10-31T07:08:34;74.50;;;34.20;;
19187;SDS011;9726;52.198;8.792;2022-10-31T07:11:00;67.07;;;32.17;;
19187;SDS011;9726;52.198;8.792;2022-10-31T07:13:28;67.00;;;33.90;;
19187;SDS011;9726;52.198;8.792;2022-10-31T07:16:03;72.57;;;32.70;;
19187;SDS011;9726;52.198;8.792;2022-10-31T07:18:34;62.00;;;30.67;;
19187;SDS011;9726;52.198;8.792;2022-10-31T07:21:02;82.73;;;35.17;;
19187;SDS011;9726;52.198;8.792;2022-10-31T07:23:30;79.87;;;32.93;;
19187;SDS011;9726;52.198;8.792;2022-10-31T07:26:21;56.20;;;29.70;;
19187;SDS011;9726;52.198;8.792;2022-10-31T07:28:48;52.17;;;27.97;;
19187;SDS011;9726;52.198;8.792;2022-10-31T07:31:18;53.67;;;27.30;;
19187;SDS011;9726;52.198;8.792;2022-10-31T07:33:46;59.27;;;28.27;;
19187;SDS011;9726;52.198;8.792;2022-10-31T07:36:39;69.00;;;29.37;;
19187;SDS011;9726;52.198;8.792;2022-10-31T07:39:06;59.00;;;28.03;;
19187;SDS011;9726;52.198;8.792;2022-10-31T07:41:34;58.53;;;28.33;;
19187;SDS011;9726;52.198;8.792;2022-10-31T07:44:02;58.47;;;27.30;;
19187;SDS011;9726;52.198;8.792;2022-10-31T07:46:48;67.03;;;29.20;;
19187;SDS011;9726;52.198;8.792;2022-10-31T07:49:27;76.57;;;31.53;;
19187;SDS011;9726;52.198;8.792;2022-10-31T07:52:33;58.33;;;29.00;;
19187;SDS011;9726;52.198;8.792;2022-10-31T07:55:00;63.97;;;29.60;;
19187;SDS011;9726;52.198;8.792;2022-10-31T07:57:27;67.00;;;31.40;;
19187;SDS011;9726;52.198;8.792;2022-10-31T08:00:00;60.67;;;29.47;;
19187;SDS011;9726;52.198;8.792;2022-10-31T08:02:32;56.83;;;28.07;;
19187;SDS011;9726;52.198;8.792;2022-10-31T08:05:30;61.57;;;29.73;;
19187;SDS011;9726;52.198;8.792;2022-10-31T08:08:24;55.77;;;28.90;;
19187;SDS011;9726;52.198;8.792;2022-10-31T08:10:57;58.70;;;29.47;;
19187;SDS011;9726;52.198;8.792;2022-10-31T08:13:24;52.97;;;28.40;;
19187;SDS011;9726;52.198;8.792;2022-10-31T08:15:52;60.73;;;30.20;;
19187;SDS011;9726;52.198;8.792;2022-10-31T08:18:23;62.87;;;27.87;;
19187;SDS011;9726;52.198;8.792;2022-10-31T08:20:51;59.30;;;29.00;;
19187;SDS011;9726;52.198;8.792;2022-10-31T08:23:20;54.70;;;28.23;;
19187;SDS011;9726;52.198;8.792;2022-10-31T08:25:47;52.53;;;27.10;;
19187;SDS011;9726;52.198;8.792;2022-10-31T08:28:15;49.47;;;25.17;;
19187;SDS011;9726;52.198;8.792;2022-10-31T08:30:43;40.60;;;24.60;;
19187;SDS011;9726;52.198;8.792;2022-10-31T08:33:30;50.73;;;23.40;;
19187;SDS011;9726;52.198;8.792;2022-10-31T08:36:16;36.40;;;23.20;;
19187;SDS011;9726;52.198;8.792;2022-10-31T08:39:06;46.93;;;24.27;;
19187;SDS011;9726;52.198;8.792;2022-10-31T08:41:33;49.97;;;23.73;;
19187;SDS011;9726;52.198;8.792;2022-10-31T08:44:02;47.40;;;23.60;;
19187;SDS011;9726;52.198;8.792;2022-10-31T08:46:30;44.70;;;24.53;;
19187;SDS011;9726;52.198;8.792;2022-10-31T08:48:58;52.03;;;25.10;;
19187;SDS011;9726;52.198;8.792;2022-10-31T08:51:25;47.27;;;26.67;;
19187;SDS011;9726;52.198;8.792;2022-10-31T08:53:54;42.03;;;24.10;;
19187;SDS011;9726;52.198;8.792;2022-10-31T08:56:40;42.30;;;24.93;;
19187;SDS011;9726;52.198;8.792;2022-10-31T08:59:27;54.83;;;24.20;;
19187;SDS011;9726;52.198;8.792;2022-10-31T09:02:15;46.40;;;24.50;;
19187;SDS011;9726;52.198;8.792;2022-10-31T09:04:42;46.80;;;24.87;;
19187;SDS011;9726;52.198;8.792;2022-10-31T09:07:10;53.10;;;26.10;;
19187;SDS011;9726;52.198;8.792;2022-10-31T09:09:53;41.80;;;23.53;;
19187;SDS011;9726;52.198;8.792;2022-10-31T09:12:22;38.47;;;23.03;;
19187;SDS011;9726;52.198;8.792;2022-10-31T09:15:10;41.83;;;24.03;;
19187;SDS011;9726;52.198;8.792;2022-10-31T09:17:46;47.17;;;23.80;;
19187;SDS011;9726;52.198;8.792;2022-10-31T09:20:20;41.40;;;23.10;;
19187;SDS011;9726;52.198;8.792;2022-10-31T09:22:54;44.60;;;24.37;;
19187;SDS011;9726;52.198;8.792;2022-10-31T09:25:27;45.80;;;25.97;;
19187;SDS011;9726;52.198;8.792;2022-10-31T09:28:19;45.60;;;24.73;;
19187;SDS011;9726;52.198;8.792;2022-10-31T09:30:49;50.03;;;25.00;;
19187;SDS011;9726;52.198;8.792;2022-10-31T09:33:35;54.03;;;25.33;;
19187;SDS011;9726;52.198;8.792;2022-10-31T09:36:23;42.07;;;25.20;;
19187;SDS011;9726;52.198;8.792;2022-10-31T09:38:51;52.00;;;26.50;;
19187;SDS011;9726;52.198;8.792;2022-10-31T09:41:19;49.67;;;25.70;;
19187;SDS011;9726;52.198;8.792;2022-10-31T09:44:06;44.57;;;25.90;;
19187;SDS011;9726;52.198;8.792;2022-10-31T09:46:50;49.73;;;25.70;;
19187;SDS011;9726;52.198;8.792;2022-10-31T09:49:33;40.80;;;23.67;;
19187;SDS011;9726;52.198;8.792;2022-10-31T09:54:41;42.73;;;24.60;;
19187;SDS011;9726;52.198;8.792;2022-10-31T09:57:13;44.63;;;25.77;;
19187;SDS011;9726;52.198;8.792;2022-10-31T09:59:45;51.07;;;26.63;;
19187;SDS011;9726;52.198;8.792;2022-10-31T10:02:23;56.43;;;28.23;;
19187;SDS011;9726;52.198;8.792;2022-10-31T10:10:17;56.13;;;28.10;;
19187;SDS011;9726;52.198;8.792;2022-10-31T10:13:12;50.10;;;28.07;;
19187;SDS011;9726;52.198;8.792;2022-10-31T10:23:52;50.80;;;26.70;;
19187;SDS011;9726;52.198;8.792;2022-10-31T10:26:41;49.90;;;29.50;;
19187;SDS011;9726;52.198;8.792;2022-10-31T10:29:28;49.70;;;27.17;;
19187;SDS011;9726;52.198;8.792;2022-10-31T10:32:01;47.30;;;25.83;;
19187;SDS011;9726;52.198;8.792;2022-10-31T10:34:39;48.73;;;27.87;;
19187;SDS011;9726;52.198;8.792;2022-10-31T10:39:48;46.60;;;26.97;;
19187;SDS011;9726;52.198;8.792;2022-10-31T10:42:19;47.47;;;26.90;;
19187;SDS011;9726;52.198;8.792;2022-10-31T10:45:13;46.87;;;25.33;;
19187;SDS011;9726;52.198;8.792;2022-10-31T10:48:11;48.17;;;25.63;;
19187;SDS011;9726;52.198;8.792;2022-10-31T10:50:48;50.30;;;26.33;;
19187;SDS011;9726;52.198;8.792;2022-10-31T10:58:30;47.63;;;24.83;;
19187;SDS011;9726;52.198;8.792;2022-10-31T11:00:58;55.93;;;24.77;;
19187;SDS011;9726;52.198;8.792;2022-10-31T11:03:25;46.90;;;25.27;;
19187;SDS011;9726;52.198;8.792;2022-10-31T11:05:53;42.73;;;21.90;;
19187;SDS011;9726;52.198;8.792;2022-10-31T11:10:58;44.73;;;22.97;;
19187;SDS011;9726;52.198;8.792;2022-10-31T11:13:30;50.90;;;22.17;;
19187;SDS011;9726;52.198;8.792;2022-10-31T11:16:12;40.10;;;22.27;;
19187;SDS011;9726;52.198;8.792;2022-10-31T11:18:52;47.77;;;22.63;;
19187;SDS011;9726;52.198;8.792;2022-10-31T11:21:21;42.33;;;22.63;;
19187;SDS011;9726;52.198;8.792;2022-10-31T11:26:37;42.53;;;21.93;;
19187;SDS011;9726;52.198;8.792;2022-10-31T11:29:10;42.67;;;20.90;;
19187;SDS011;9726;52.198;8.792;2022-10-31T11:31:51;51.27;;;21.63;;
19187;SDS011;9726;52.198;8.792;2022-10-31T11:36:48;39.47;;;19.10;;
19187;SDS011;9726;52.198;8.792;2022-10-31T11:39:22;37.07;;;20.07;;
19187;SDS011;9726;52.198;8.792;2022-10-31T11:41:51;44.07;;;21.33;;
19187;SDS011;9726;52.198;8.792;2022-10-31T11:44:22;42.07;;;18.60;;
19187;SDS011;9726;52.198;8.792;2022-10-31T11:46:54;43.87;;;20.43;;
19187;SDS011;9726;52.198;8.792;2022-10-31T11:49:31;44.97;;;20.77;;
19187;SDS011;9726;52.198;8.792;2022-10-31T11:52:06;35.93;;;18.40;;
19187;SDS011;9726;52.198;8.792;2022-10-31T11:54:47;35.33;;;18.83;;
19187;SDS011;9726;52.198;8.792;2022-10-31T11:57:45;35.43;;;20.17;;
19187;SDS011;9726;52.198;8.792;2022-10-31T12:00:20;34.97;;;19.17;;
19187;SDS011;9726;52.198;8.792;2022-10-31T12:05:50;38.40;;;19.23;;
19187;SDS011;9726;52.198;8.792;2022-10-31T12:08:18;40.90;;;19.03;;
19187;SDS011;9726;52.198;8.792;2022-10-31T12:13:30;35.63;;;18.80;;
19187;SDS011;9726;52.198;8.792;2022-10-31T12:16:08;31.70;;;16.83;;
19187;SDS011;9726;52.198;8.792;2022-10-31T12:21:31;39.80;;;18.93;;
19187;SDS011;9726;52.198;8.792;2022-10-31T12:24:14;39.47;;;18.73;;
19187;SDS011;9726;52.198;8.792;2022-10-31T12:29:57;37.47;;;18.80;;
19187;SDS011;9726;52.198;8.792;2022-10-31T12:35:38;35.00;;;18.90;;
19187;SDS011;9726;52.198;8.792;2022-10-31T12:38:12;32.67;;;16.50;;
19187;SDS011;9726;52.198;8.792;2022-10-31T12:40:55;34.27;;;15.97;;
19187;SDS011;9726;52.198;8.792;2022-10-31T12:43:35;29.93;;;14.07;;
19187;SDS011;9726;52.198;8.792;2022-10-31T12:46:15;28.73;;;15.10;;
19187;SDS011;9726;52.198;8.792;2022-10-31T12:49:31;35.90;;;15.23;;
19187;SDS011;9726;52.198;8.792;2022-10-31T12:55:03;37.60;;;14.27;;
19187;SDS011;9726;52.198;8.792;2022-10-31T12:57:45;33.40;;;13.80;;
19187;SDS011;9726;52.198;8.792;2022-10-31T13:00:24;40.77;;;14.23;;
19187;SDS011;9726;52.198;8.792;2022-10-31T13:03:03;25.67;;;14.47;;
19187;SDS011;9726;52.198;8.792;2022-10-31T13:05:51;30.90;;;14.20;;
19187;SDS011;9726;52.198;8.792;2022-10-31T13:08:37;34.37;;;14.87;;
19187;SDS011;9726;52.198;8.792;2022-10-31T13:11:14;30.87;;;13.70;;
19187;SDS011;9726;52.198;8.792;2022-10-31T13:19:02;34.77;;;15.10;;
19187;SDS011;9726;52.198;8.792;2022-10-31T13:21:38;35.23;;;15.20;;
19187;SDS011;9726;52.198;8.792;2022-10-31T13:24:13;29.07;;;14.13;;
19187;SDS011;9726;52.198;8.792;2022-10-31T13:26:52;31.43;;;13.63;;
19187;SDS011;9726;52.198;8.792;2022-10-31T13:31:59;33.57;;;13.53;;
19187;SDS011;9726;52.198;8.792;2022-10-31T13:34:31;28.03;;;13.53;;
19187;SDS011;9726;52.198;8.792;2022-10-31T13:37:03;33.20;;;12.40;;
19187;SDS011;9726;52.198;8.792;2022-10-31T13:39:59;33.47;;;11.77;;
19187;SDS011;9726;52.198;8.792;2022-10-31T13:43:17;24.40;;;12.60;;
19187;SDS011;9726;52.198;8.792;2022-10-31T13:45:51;26.70;;;11.93;;
19187;SDS011;9726;52.198;8.792;2022-10-31T13:50:57;24.70;;;11.80;;
19187;SDS011;9726;52.198;8.792;2022-10-31T13:53:36;22.37;;;11.43;;
19187;SDS011;9726;52.198;8.792;2022-10-31T13:58:34;25.83;;;11.53;;
19187;SDS011;9726;52.198;8.792;2022-10-31T14:01:05;30.80;;;11.37;;
19187;SDS011;9726;52.198;8.792;2022-10-31T14:03:44;26.83;;;12.10;;
19187;SDS011;9726;52.198;8.792;2022-10-31T14:11:53;17.83;;;9.70;;
19187;SDS011;9726;52.198;8.792;2022-10-31T14:14:32;23.23;;;9.10;;
19187;SDS011;9726;52.198;8.792;2022-10-31T14:17:20;26.17;;;9.63;;
19187;SDS011;9726;52.198;8.792;2022-10-31T14:19:58;19.90;;;9.70;;
19187;SDS011;9726;52.198;8.792;2022-10-31T14:22:46;18.47;;;8.57;;
19187;SDS011;9726;52.198;8.792;2022-10-31T14:25:32;23.13;;;8.27;;
19187;SDS011;9726;52.198;8.792;2022-10-31T14:28:02;20.20;;;8.37;;
19187;SDS011;9726;52.198;8.792;2022-10-31T14:30:53;18.93;;;8.67;;
19187;SDS011;9726;52.198;8.792;2022-10-31T14:33:24;22.47;;;8.47;;
19187;SDS011;9726;52.198;8.792;2022-10-31T14:36:00;23.83;;;8.37;;
19187;SDS011;9726;52.198;8.792;2022-10-31T14:38:40;16.90;;;9.13;;
19187;SDS011;9726;52.198;8.792;2022-10-31T14:44:34;20.10;;;8.27;;
19187;SDS011;9726;52.198;8.792;2022-10-31T14:47:10;21.30;;;8.03;;
19187;SDS011;9726;52.198;8.792;2022-10-31T14:52:30;18.77;;;7.83;;
19187;SDS011;9726;52.198;8.792;2022-10-31T14:54:57;16.97;;;8.47;;
19187;SDS011;9726;52.198;8.792;2022-10-31T14:57:28;20.93;;;8.13;;
19187;SDS011;9726;52.198;8.792;2022-10-31T15:00:03;22.30;;;8.30;;
19187;SDS011;9726;52.198;8.792;2022-10-31T15:02:34;11.47;;;7.63;;
19187;SDS011;9726;52.198;8.792;2022-10-31T15:05:16;18.23;;;6.93;;
19187;SDS011;9726;52.198;8.792;2022-10-31T15:07:51;18.10;;;8.27;;
19187;SDS011;9726;52.198;8.792;2022-10-31T15:10:32;17.60;;;8.27;;
19187;SDS011;9726;52.198;8.792;2022-10-31T15:13:17;22.50;;;8.37;;
19187;SDS011;9726;52.198;8.792;2022-10-31T15:15:45;24.77;;;8.60;;
19187;SDS011;9726;52.198;8.792;2022-10-31T15:18:19;21.87;;;8.77;;
19187;SDS011;9726;52.198;8.792;2022-10-31T15:20:49;28.93;;;8.27;;
19187;SDS011;9726;52.198;8.792;2022-10-31T15:25:50;18.93;;;7.73;;
19187;SDS011;9726;52.198;8.792;2022-10-31T15:28:21;25.20;;;8.60;;
19187;SDS011;9726;52.198;8.792;2022-10-31T15:30:54;16.23;;;8.33;;
19187;SDS011;9726;52.198;8.792;2022-10-31T15:33:26;19.23;;;8.60;;
19187;SDS011;9726;52.198;8.792;2022-10-31T15:36:04;19.57;;;7.70;;
19187;SDS011;9726;52.198;8.792;2022-10-31T15:38:31;21.57;;;8.80;;
19187;SDS011;9726;52.198;8.792;2022-10-31T15:41:00;22.03;;;9.53;;
19187;SDS011;9726;52.198;8.792;2022-10-31T15:43:33;22.43;;;8.80;;
19187;SDS011;9726;52.198;8.792;2022-10-31T15:46:03;28.07;;;8.40;;
19187;SDS011;9726;52.198;8.792;2022-10-31T15:48:33;18.10;;;8.03;;
19187;SDS011;9726;52.198;8.792;2022-10-31T15:51:01;20.77;;;8.30;;
19187;SDS011;9726;52.198;8.792;2022-10-31T15:53:48;21.40;;;8.77;;
19187;SDS011;9726;52.198;8.792;2022-10-31T15:56:22;25.97;;;8.63;;
19187;SDS011;9726;52.198;8.792;2022-10-31T15:58:51;16.63;;;8.73;;
19187;SDS011;9726;52.198;8.792;2022-10-31T16:01:25;22.70;;;9.73;;
19187;SDS011;9726;52.198;8.792;2022-10-31T16:06:39;19.70;;;9.20;;
19187;SDS011;9726;52.198;8.792;2022-10-31T16:09:22;26.17;;;10.40;;
19187;SDS011;9726;52.198;8.792;2022-10-31T16:11:50;24.13;;;10.37;;
19187;SDS011;9726;52.198;8.792;2022-10-31T16:14:25;18.43;;;9.63;;
19187;SDS011;9726;52.198;8.792;2022-10-31T16:16:55;25.57;;;10.57;;
19187;SDS011;9726;52.198;8.792;2022-10-31T16:19:26;19.20;;;10.33;;
19187;SDS011;9726;52.198;8.792;2022-10-31T16:22:05;21.07;;;10.83;;
19187;SDS011;9726;52.198;8.792;2022-10-31T16:24:47;24.67;;;12.17;;
19187;SDS011;9726;52.198;8.792;2022-10-31T16:27:22;27.60;;;11.27;;
19187;SDS011;9726;52.198;8.792;2022-10-31T16:29:55;27.60;;;12.90;;
19187;SDS011;9726;52.198;8.792;2022-10-31T16:32:27;27.57;;;12.13;;
19187;SDS011;9726;52.198;8.792;2022-10-31T16:37:37;21.03;;;10.80;;
19187;SDS011;9726;52.198;8.792;2022-10-31T16:40:05;24.93;;;11.53;;
19187;SDS011;9726;52.198;8.792;2022-10-31T16:42:32;37.60;;;11.77;;
19187;SDS011;9726;52.198;8.792;2022-10-31T16:44:59;25.47;;;11.70;;
19187;SDS011;9726;52.198;8.792;2022-10-31T16:47:27;27.83;;;11.80;;
19187;SDS011;9726;52.198;8.792;2022-10-31T16:49:54;26.37;;;12.30;;
19187;SDS011;9726;52.198;8.792;2022-10-31T16:52:26;24.80;;;11.87;;
19187;SDS011;9726;52.198;8.792;2022-10-31T16:55:00;23.47;;;11.00;;
19187;SDS011;9726;52.198;8.792;2022-10-31T16:57:27;26.03;;;10.77;;
19187;SDS011;9726;52.198;8.792;2022-10-31T16:59:57;24.97;;;11.47;;
19187;SDS011;9726;52.198;8.792;2022-10-31T17:02:25;28.50;;;12.40;;
19187;SDS011;9726;52.198;8.792;2022-10-31T17:04:52;32.27;;;14.43;;
19187;SDS011;9726;52.198;8.792;2022-10-31T17:07:22;24.00;;;12.47;;
19187;SDS011;9726;52.198;8.792;2022-10-31T17:09:49;29.23;;;14.60;;
19187;SDS011;9726;52.198;8.792;2022-10-31T17:12:18;26.07;;;12.27;;
19187;SDS011;9726;52.198;8.792;2022-10-31T17:14:48;27.63;;;13.50;;
19187;SDS011;9726;52.198;8.792;2022-10-31T17:17:16;33.07;;;14.37;;